createdAt,value
2023-04-30T00:00:16.770Z,27.31
2023-04-30T00:01:16.798Z,28.19
2023-04-30T00:02:16.820Z,30.00
2023-04-30T00:03:16.928Z,30.12
2023-04-30T00:04:16.810Z,32.54
2023-04-30T00:05:16.802Z,28.57
2023-04-30T00:06:16.867Z,29.92
2023-04-30T00:07:16.793Z,28.00
2023-04-30T00:08:16.787Z,30.79
2023-04-30T00:09:16.818Z,30.94
2023-04-30T00:10:16.784Z,29.51
2023-04-30T00:11:16.793Z,27.45
2023-04-30T00:12:16.811Z,26.58
2023-04-30T00:13:16.787Z,28.11
2023-04-30T00:14:16.799Z,26.56
2023-04-30T00:15:16.889Z,28.25
2023-04-30T00:16:16.877Z,31.16
2023-04-30T00:17:16.904Z,29.94
2023-04-30T00:18:16.868Z,28.30
2023-04-30T00:19:17.018Z,26.34
2023-04-30T00:20:16.929Z,31.15
2023-04-30T00:21:16.910Z,29.05
2023-04-30T00:22:16.931Z,30.90
2023-04-30T00:23:16.901Z,29.60
2023-04-30T00:24:16.909Z,29.88
2023-04-30T00:25:16.963Z,30.95
2023-04-30T00:26:16.963Z,33.75
2023-04-30T00:27:16.973Z,31.92
2023-04-30T00:28:16.984Z,26.47
2023-04-30T00:29:16.971Z,30.03
2023-04-30T00:30:16.982Z,26.99
2023-04-30T00:31:17.006Z,32.51
2023-04-30T00:32:17.045Z,31.78
2023-04-30T00:33:17.045Z,29.99
2023-04-30T00:34:17.039Z,30.74
2023-04-30T00:35:17.017Z,29.38
2023-04-30T00:36:17.025Z,31.26
2023-04-30T00:37:17.078Z,29.47
2023-04-30T00:38:17.072Z,31.07
2023-04-30T00:39:17.150Z,30.96
2023-04-30T00:40:17.146Z,30.33
2023-04-30T00:41:17.129Z,25.10
2023-04-30T00:42:17.133Z,29.51
2023-04-30T00:43:17.176Z,29.31
2023-04-30T00:44:17.179Z,28.53
2023-04-30T00:45:17.246Z,27.60
2023-04-30T00:46:17.389Z,28.62
2023-04-30T00:47:17.312Z,28.56
2023-04-30T00:48:17.341Z,29.66
2023-04-30T00:49:17.322Z,28.71
2023-04-30T00:50:17.324Z,29.18
2023-04-30T00:51:17.372Z,27.68
2023-04-30T00:52:17.374Z,29.12
2023-04-30T00:53:17.410Z,27.48
2023-04-30T00:54:17.426Z,29.33
2023-04-30T00:55:17.430Z,31.46
2023-04-30T00:56:17.501Z,30.49
2023-04-30T00:57:17.587Z,29.88
2023-04-30T00:58:17.519Z,29.48
2023-04-30T00:59:17.613Z,29.74
2023-04-30T01:00:17.606Z,29.53
2023-04-30T01:01:17.563Z,28.24
2023-04-30T01:02:17.641Z,30.71
2023-04-30T01:03:17.731Z,29.89
2023-04-30T01:04:17.634Z,30.81
2023-04-30T01:05:17.701Z,31.88
2023-04-30T01:06:17.716Z,31.44
2023-04-30T01:07:17.662Z,28.48
2023-04-30T01:08:17.741Z,31.10
2023-04-30T01:09:17.756Z,27.62
2023-04-30T01:10:17.762Z,29.84
2023-04-30T01:11:17.808Z,28.67
2023-04-30T01:12:17.811Z,26.73
2023-04-30T01:13:17.903Z,28.86
2023-04-30T01:14:17.849Z,29.52
2023-04-30T01:15:17.853Z,27.70
2023-04-30T01:16:17.946Z,31.50
2023-04-30T01:17:17.955Z,28.37
2023-04-30T01:18:18.022Z,29.54
2023-04-30T01:19:18.028Z,29.81
2023-04-30T01:20:18.004Z,27.13
2023-04-30T01:21:18.044Z,25.01
2023-04-30T01:22:18.068Z,28.29
2023-04-30T01:23:18.077Z,30.29
2023-04-30T01:24:18.108Z,30.64
2023-04-30T01:25:18.300Z,27.84
2023-04-30T01:26:18.193Z,28.00
2023-04-30T01:27:18.188Z,29.32
2023-04-30T01:28:18.164Z,30.16
2023-04-30T01:29:18.259Z,28.67
2023-04-30T01:30:18.436Z,29.50
2023-04-30T01:31:18.294Z,33.79
2023-04-30T01:32:18.326Z,30.04
2023-04-30T01:33:18.333Z,29.31
2023-04-30T01:34:18.386Z,33.40
2023-04-30T01:35:18.380Z,26.95
2023-04-30T01:36:18.388Z,27.99
2023-04-30T01:37:18.406Z,28.53
2023-04-30T01:38:18.471Z,29.31
2023-04-30T01:39:18.471Z,29.60
2023-04-30T01:40:18.520Z,30.41
2023-04-30T01:41:18.518Z,29.25
2023-04-30T01:42:18.594Z,29.81
2023-04-30T01:43:18.604Z,29.55
2023-04-30T01:44:18.618Z,30.81
2023-04-30T01:45:18.621Z,30.03
2023-04-30T01:46:18.748Z,27.83
2023-04-30T01:47:18.733Z,33.97
2023-04-30T01:48:18.681Z,30.46
2023-04-30T01:49:18.691Z,29.28
2023-04-30T01:50:18.750Z,25.48
2023-04-30T01:51:18.758Z,31.36
2023-04-30T01:52:18.927Z,32.24
2023-04-30T01:53:18.811Z,34.02
2023-04-30T01:54:18.844Z,31.09
2023-04-30T01:55:18.870Z,28.77
2023-04-30T01:56:18.890Z,30.15
2023-04-30T01:57:18.928Z,30.54
2023-04-30T01:58:18.983Z,29.22
2023-04-30T01:59:18.963Z,29.75
2023-04-30T02:00:18.982Z,27.67
2023-04-30T02:01:19.101Z,28.33
2023-04-30T02:02:19.033Z,30.69
2023-04-30T02:03:19.153Z,31.40
2023-04-30T02:04:19.102Z,30.36
2023-04-30T02:05:19.148Z,29.23
2023-04-30T02:06:19.208Z,31.60
2023-04-30T02:07:19.193Z,29.91
2023-04-30T02:08:19.199Z,30.13
2023-04-30T02:09:19.221Z,29.17
2023-04-30T02:10:19.307Z,30.40
2023-04-30T02:11:19.304Z,30.80
2023-04-30T02:12:19.329Z,28.71
2023-04-30T02:13:19.355Z,27.33
2023-04-30T02:14:19.374Z,31.09
2023-04-30T02:15:19.373Z,29.68
2023-04-30T02:16:19.438Z,32.24
2023-04-30T02:17:19.450Z,29.93
2023-04-30T02:18:19.466Z,29.94
2023-04-30T02:19:19.492Z,31.69
2023-04-30T02:20:19.535Z,25.88
2023-04-30T02:21:19.638Z,29.41
2023-04-30T02:22:19.588Z,31.21
2023-04-30T02:23:19.595Z,29.29
2023-04-30T02:24:19.658Z,33.35
2023-04-30T02:25:19.631Z,29.28
2023-04-30T02:26:19.709Z,30.01
2023-04-30T02:27:19.665Z,31.51
2023-04-30T02:28:19.711Z,28.07
2023-04-30T02:29:19.831Z,29.93
2023-04-30T02:30:19.785Z,30.19
2023-04-30T02:31:19.781Z,31.73
2023-04-30T02:32:19.827Z,29.09
2023-04-30T02:33:19.862Z,28.00
2023-04-30T02:34:19.861Z,31.21
2023-04-30T02:35:19.877Z,29.27
2023-04-30T02:36:19.926Z,29.52
2023-04-30T02:37:19.933Z,26.46
2023-04-30T02:38:19.938Z,29.33
2023-04-30T02:39:20.017Z,29.38
2023-04-30T02:40:19.976Z,28.53
2023-04-30T02:41:20.027Z,30.50
2023-04-30T02:42:20.060Z,29.05
2023-04-30T02:43:20.076Z,26.96
2023-04-30T02:44:20.084Z,29.62
2023-04-30T02:45:20.081Z,28.31
2023-04-30T02:46:20.188Z,32.09
2023-04-30T02:47:20.171Z,27.49
2023-04-30T02:48:20.165Z,27.33
2023-04-30T02:49:20.213Z,28.36
2023-04-30T02:50:20.220Z,28.26
2023-04-30T02:51:20.301Z,28.65
2023-04-30T02:52:20.248Z,27.65
2023-04-30T02:53:20.307Z,29.00
2023-04-30T02:54:20.364Z,28.81
2023-04-30T02:55:20.342Z,27.47
2023-04-30T02:56:20.435Z,33.37
2023-04-30T02:57:20.411Z,30.96
2023-04-30T02:58:20.445Z,30.42
2023-04-30T02:59:20.509Z,30.33
2023-04-30T03:00:20.519Z,32.03
2023-04-30T03:01:20.634Z,28.43
2023-04-30T03:02:20.548Z,29.61
2023-04-30T03:03:20.828Z,27.67
2023-04-30T03:04:20.654Z,29.81
2023-04-30T03:05:20.647Z,31.75
2023-04-30T03:06:20.851Z,29.28
2023-04-30T03:07:20.723Z,27.69
2023-04-30T03:08:20.715Z,27.69
2023-04-30T03:09:20.716Z,31.97
2023-04-30T03:10:20.784Z,26.45
2023-04-30T03:11:20.760Z,30.46
2023-04-30T03:12:20.850Z,30.71
2023-04-30T03:13:20.852Z,29.71
2023-04-30T03:14:20.850Z,30.17
2023-04-30T03:15:20.938Z,28.07
2023-04-30T03:16:20.971Z,28.77
2023-04-30T03:17:20.960Z,30.79
2023-04-30T03:18:20.987Z,27.39
2023-04-30T03:19:21.045Z,29.61
2023-04-30T03:20:21.060Z,28.43
2023-04-30T03:21:21.050Z,29.74
2023-04-30T03:22:21.083Z,27.09
2023-04-30T03:23:21.136Z,27.78
2023-04-30T03:24:21.142Z,30.50
2023-04-30T03:25:21.194Z,28.44
2023-04-30T03:26:21.206Z,29.28
2023-04-30T03:27:21.314Z,29.04
2023-04-30T03:28:21.234Z,30.10
2023-04-30T03:29:21.279Z,29.10
2023-04-30T03:30:21.350Z,28.57
2023-04-30T03:31:21.378Z,27.43
2023-04-30T03:32:21.391Z,29.04
2023-04-30T03:33:21.448Z,30.48
2023-04-30T03:34:21.413Z,29.11
2023-04-30T03:35:21.430Z,29.85
2023-04-30T03:36:21.471Z,29.77
2023-04-30T03:37:21.500Z,29.38
2023-04-30T03:38:21.551Z,27.63
2023-04-30T03:39:21.551Z,27.32
2023-04-30T03:40:21.559Z,31.79
2023-04-30T03:41:21.619Z,30.39
2023-04-30T03:42:21.609Z,28.93
2023-04-30T03:43:21.680Z,31.31
2023-04-30T03:44:21.701Z,31.13
2023-04-30T03:45:21.732Z,26.50
2023-04-30T03:46:21.754Z,27.86
2023-04-30T03:47:21.771Z,29.89
2023-04-30T03:48:21.767Z,31.31
2023-04-30T03:49:21.768Z,33.18
2023-04-30T03:50:21.777Z,31.21
2023-04-30T03:51:21.855Z,32.17
2023-04-30T03:52:21.794Z,27.33
2023-04-30T03:53:21.856Z,26.82
2023-04-30T03:54:21.863Z,29.01
2023-04-30T03:55:21.865Z,29.91
2023-04-30T03:56:21.847Z,28.40
2023-04-30T03:57:21.876Z,31.24
2023-04-30T03:58:21.849Z,27.31
2023-04-30T03:59:21.901Z,31.11
2023-04-30T04:00:21.902Z,28.38
2023-04-30T04:01:21.902Z,27.86
2023-04-30T04:02:22.019Z,28.38
2023-04-30T04:03:21.940Z,27.83
2023-04-30T04:04:22.057Z,31.11
2023-04-30T04:05:21.980Z,29.31
2023-04-30T04:06:22.038Z,29.65
2023-04-30T04:07:21.986Z,28.29
2023-04-30T04:08:22.015Z,29.73
2023-04-30T04:09:22.006Z,31.29
2023-04-30T04:10:22.011Z,29.06
2023-04-30T04:11:22.005Z,29.47
2023-04-30T04:12:22.042Z,28.74
2023-04-30T04:13:22.068Z,28.37
2023-04-30T04:14:22.108Z,29.87
2023-04-30T04:15:22.179Z,29.94
2023-04-30T04:16:22.180Z,28.02
2023-04-30T04:17:22.175Z,30.01
2023-04-30T04:18:22.238Z,29.32
2023-04-30T04:19:22.227Z,30.69
2023-04-30T04:20:22.216Z,30.24
2023-04-30T04:21:22.256Z,30.56
2023-04-30T04:22:22.279Z,29.81
2023-04-30T04:23:22.309Z,27.96
2023-04-30T04:24:22.324Z,28.12
2023-04-30T04:25:22.313Z,29.15
2023-04-30T04:26:22.326Z,28.40
2023-04-30T04:27:22.372Z,27.29
2023-04-30T04:28:22.379Z,28.83
2023-04-30T04:29:22.380Z,26.16
2023-04-30T04:30:22.422Z,28.71
2023-04-30T04:31:22.446Z,30.59
2023-04-30T04:32:22.450Z,30.75
2023-04-30T04:33:22.436Z,29.77
2023-04-30T04:34:22.406Z,28.09
2023-04-30T04:35:22.442Z,28.51
2023-04-30T04:36:22.461Z,29.74
2023-04-30T04:37:22.476Z,28.86
2023-04-30T04:38:22.464Z,27.42
2023-04-30T04:39:22.476Z,29.40
2023-04-30T04:40:22.483Z,32.53
2023-04-30T04:41:22.537Z,30.75
2023-04-30T04:42:22.548Z,30.72
2023-04-30T04:43:22.539Z,31.03
2023-04-30T04:44:22.536Z,29.06
2023-04-30T04:45:22.578Z,29.06
2023-04-30T04:46:22.630Z,25.61
2023-04-30T04:47:22.625Z,25.83
2023-04-30T04:48:22.619Z,31.45
2023-04-30T04:49:22.607Z,29.48
2023-04-30T04:50:22.648Z,32.13
2023-04-30T04:51:22.638Z,29.51
2023-04-30T04:52:22.668Z,27.89
2023-04-30T04:53:22.687Z,27.58
2023-04-30T04:54:22.704Z,28.52
2023-04-30T04:55:22.691Z,26.27
2023-04-30T04:56:22.693Z,30.21
2023-04-30T04:57:22.716Z,27.37
2023-04-30T04:58:22.717Z,30.19
2023-04-30T04:59:22.739Z,28.45
2023-04-30T05:00:22.780Z,25.90
2023-04-30T05:01:22.801Z,29.34
2023-04-30T05:02:22.776Z,27.18
2023-04-30T05:03:22.891Z,27.27
2023-04-30T05:04:22.802Z,27.92
2023-04-30T05:05:22.802Z,26.37
2023-04-30T05:06:22.880Z,32.08
2023-04-30T05:07:22.892Z,30.45
2023-04-30T05:08:22.887Z,30.07
2023-04-30T05:09:22.840Z,28.86
2023-04-30T05:10:22.853Z,29.49
2023-04-30T05:11:22.928Z,28.71
2023-04-30T05:12:22.897Z,28.79
2023-04-30T05:13:22.912Z,27.10
2023-04-30T05:14:22.978Z,27.84
2023-04-30T05:15:22.964Z,29.19
2023-04-30T05:16:23.011Z,31.22
2023-04-30T05:17:23.069Z,28.21
2023-04-30T05:18:23.028Z,30.78
2023-04-30T05:19:23.060Z,29.72
2023-04-30T05:20:23.065Z,28.25
2023-04-30T05:21:23.076Z,29.57
2023-04-30T05:22:23.095Z,27.84
2023-04-30T05:23:23.091Z,26.83
2023-04-30T05:24:23.107Z,27.78
2023-04-30T05:25:23.162Z,28.72
2023-04-30T05:26:23.165Z,27.99
2023-04-30T05:27:23.158Z,28.85
2023-04-30T05:28:23.161Z,31.46
2023-04-30T05:29:23.162Z,28.20
2023-04-30T05:30:23.171Z,27.95
2023-04-30T05:31:23.223Z,28.23
2023-04-30T05:32:23.277Z,26.78
2023-04-30T05:33:23.192Z,30.03
2023-04-30T05:34:23.236Z,28.10
2023-04-30T05:35:23.244Z,28.38
2023-04-30T05:36:23.298Z,27.58
2023-04-30T05:37:23.274Z,29.64
2023-04-30T05:38:23.343Z,30.05
2023-04-30T05:39:23.410Z,28.71
2023-04-30T05:40:23.351Z,27.27
2023-04-30T05:41:23.373Z,31.05
2023-04-30T05:42:23.375Z,31.74
2023-04-30T05:43:23.432Z,29.34
2023-04-30T05:44:23.397Z,28.49
2023-04-30T05:45:23.443Z,28.14
2023-04-30T05:46:23.536Z,29.97
2023-04-30T05:47:23.454Z,28.64
2023-04-30T05:48:23.507Z,30.40
2023-04-30T05:49:23.501Z,31.89
2023-04-30T05:50:23.527Z,28.40
2023-04-30T05:51:23.526Z,29.19
2023-04-30T05:52:23.536Z,26.69
2023-04-30T05:53:23.535Z,29.46
2023-04-30T05:54:23.607Z,28.86
2023-04-30T05:55:23.661Z,28.19
2023-04-30T05:56:23.629Z,28.16
2023-04-30T05:57:23.631Z,25.00
2023-04-30T05:58:23.643Z,27.72
2023-04-30T05:59:23.642Z,25.00
2023-04-30T06:00:23.652Z,28.11
2023-04-30T06:01:23.656Z,25.61
2023-04-30T06:02:23.833Z,25.79
2023-04-30T06:03:23.792Z,25.52
2023-04-30T06:04:23.756Z,27.23
2023-04-30T06:05:23.777Z,27.79
2023-04-30T06:06:23.838Z,31.96
2023-04-30T06:07:23.824Z,28.03
2023-04-30T06:08:23.814Z,29.44
2023-04-30T06:09:23.818Z,27.81
2023-04-30T06:10:23.793Z,28.12
2023-04-30T06:11:23.848Z,29.96
2023-04-30T06:12:23.862Z,27.52
2023-04-30T06:13:23.900Z,26.15
2023-04-30T06:14:23.888Z,32.15
2023-04-30T06:15:23.870Z,25.96
2023-04-30T06:16:23.974Z,28.09
2023-04-30T06:17:23.938Z,28.19
2023-04-30T06:18:23.949Z,27.82
2023-04-30T06:19:23.928Z,30.26
2023-04-30T06:20:23.937Z,27.10
2023-04-30T06:21:24.009Z,27.29
2023-04-30T06:22:23.998Z,28.97
2023-04-30T06:23:24.036Z,25.35
2023-04-30T06:24:24.049Z,30.31
2023-04-30T06:25:24.046Z,27.58
2023-04-30T06:26:24.060Z,28.18
2023-04-30T06:27:24.022Z,28.93
2023-04-30T06:28:24.077Z,29.89
2023-04-30T06:29:24.072Z,29.86
2023-04-30T06:30:24.081Z,29.18
2023-04-30T06:31:24.101Z,26.82
2023-04-30T06:32:24.174Z,27.02
2023-04-30T06:33:24.157Z,27.38
2023-04-30T06:34:24.156Z,28.77
2023-04-30T06:35:24.140Z,26.41
2023-04-30T06:36:24.165Z,29.38
2023-04-30T06:37:24.192Z,30.36
2023-04-30T06:38:24.237Z,31.13
2023-04-30T06:39:24.240Z,32.83
2023-04-30T06:40:24.357Z,30.02
2023-04-30T06:41:24.261Z,27.56
2023-04-30T06:42:24.316Z,29.72
2023-04-30T06:43:24.313Z,29.78
2023-04-30T06:44:24.305Z,29.98
2023-04-30T06:45:24.338Z,28.84
2023-04-30T06:46:24.333Z,28.57
2023-04-30T06:47:24.363Z,32.31
2023-04-30T06:48:24.354Z,31.61
2023-04-30T06:49:24.401Z,25.59
2023-04-30T06:50:24.371Z,29.92
2023-04-30T06:51:24.431Z,31.29
2023-04-30T06:52:24.443Z,27.25
2023-04-30T06:53:24.445Z,26.69
2023-04-30T06:54:24.422Z,29.46
2023-04-30T06:55:24.454Z,29.83
2023-04-30T06:56:24.434Z,29.56
2023-04-30T06:57:24.464Z,28.88
2023-04-30T06:58:24.476Z,29.18
2023-04-30T06:59:24.438Z,31.81
2023-04-30T07:00:24.472Z,29.94
2023-04-30T07:01:24.512Z,30.62
2023-04-30T07:02:24.557Z,31.26
2023-04-30T07:03:24.504Z,27.91
2023-04-30T07:04:24.547Z,29.48
2023-04-30T07:05:24.469Z,28.18
2023-04-30T07:06:24.494Z,28.44
2023-04-30T07:07:24.467Z,30.97
2023-04-30T07:08:24.466Z,28.72
2023-04-30T07:09:24.482Z,28.06
2023-04-30T07:10:24.479Z,27.64
2023-04-30T07:11:24.524Z,30.77
2023-04-30T07:12:24.521Z,30.41
2023-04-30T07:13:24.587Z,29.35
2023-04-30T07:14:24.591Z,28.75
2023-04-30T07:15:24.580Z,30.64
2023-04-30T07:16:24.677Z,31.39
2023-04-30T07:17:27.413Z,28.99
2023-04-30T07:18:24.585Z,32.60
2023-04-30T07:19:24.627Z,29.84
2023-04-30T07:20:24.594Z,28.26
2023-04-30T07:21:24.624Z,29.05
2023-04-30T07:22:24.590Z,29.26
2023-04-30T07:23:24.513Z,29.28
2023-04-30T07:24:24.519Z,29.91
2023-04-30T07:25:24.483Z,28.61
2023-04-30T07:26:24.573Z,29.32
2023-04-30T07:27:24.500Z,28.64
2023-04-30T07:28:24.487Z,28.81
2023-04-30T07:29:24.491Z,26.97
2023-04-30T07:30:25.253Z,28.57
2023-04-30T07:31:24.499Z,30.96
2023-04-30T07:32:24.441Z,29.04
2023-04-30T07:33:24.438Z,27.75
2023-04-30T07:34:24.459Z,28.51
2023-04-30T07:35:24.466Z,26.91
2023-04-30T07:36:24.421Z,30.37
2023-04-30T07:37:24.406Z,27.01
2023-04-30T07:38:24.495Z,28.00
2023-04-30T07:39:24.416Z,26.79
2023-04-30T07:40:34.936Z,27.84
2023-04-30T07:41:25.402Z,28.28
2023-04-30T07:42:24.395Z,28.36
2023-04-30T07:43:24.404Z,29.77
2023-04-30T07:44:24.383Z,28.65
2023-04-30T07:45:24.366Z,30.97
2023-04-30T07:46:24.398Z,31.14
2023-04-30T07:47:24.397Z,30.81
2023-04-30T07:48:24.350Z,26.45
2023-04-30T07:49:24.340Z,30.42
2023-04-30T07:50:24.333Z,28.60
2023-04-30T07:51:24.333Z,30.50
2023-04-30T07:52:24.299Z,29.45
2023-04-30T07:53:24.314Z,30.18
2023-04-30T07:54:24.289Z,26.12
2023-04-30T07:55:24.296Z,27.87
2023-04-30T07:56:24.308Z,29.22
2023-04-30T07:57:24.314Z,27.48
2023-04-30T07:58:24.309Z,29.30
2023-04-30T07:59:24.334Z,27.69
2023-04-30T08:00:24.293Z,31.97
2023-04-30T08:01:24.235Z,27.18
2023-04-30T08:02:24.427Z,28.79
2023-04-30T08:03:24.357Z,32.24
2023-04-30T08:04:24.346Z,26.76
2023-04-30T08:05:24.232Z,34.70
2023-04-30T08:06:24.275Z,35.58
2023-04-30T08:07:24.202Z,38.39
2023-04-30T08:08:24.204Z,37.56
2023-04-30T08:09:24.249Z,34.86
2023-04-30T08:10:24.213Z,36.09
2023-04-30T08:11:24.204Z,35.68
2023-04-30T08:12:24.171Z,35.92
2023-04-30T08:13:24.186Z,32.29
2023-04-30T08:14:24.177Z,35.92
2023-04-30T08:15:24.165Z,33.32
2023-04-30T08:16:24.239Z,34.19
2023-04-30T08:17:24.243Z,36.66
2023-04-30T08:18:24.158Z,33.34
2023-04-30T08:19:24.138Z,33.99
2023-04-30T08:20:24.121Z,33.60
2023-04-30T08:21:24.117Z,32.46
2023-04-30T08:22:24.132Z,35.34
2023-04-30T08:23:24.144Z,32.79
2023-04-30T08:24:24.137Z,34.38
2023-04-30T08:25:24.129Z,30.49
2023-04-30T08:26:24.122Z,32.21
2023-04-30T08:27:24.113Z,28.59
2023-04-30T08:28:24.097Z,31.83
2023-04-30T08:29:24.073Z,30.43
2023-04-30T08:30:24.089Z,32.92
2023-04-30T08:31:24.210Z,31.24
2023-04-30T08:32:24.268Z,31.90
2023-04-30T08:33:24.250Z,29.97
2023-04-30T08:34:24.056Z,32.57
2023-04-30T08:35:24.049Z,32.30
2023-04-30T08:36:24.032Z,34.15
2023-04-30T08:37:24.060Z,31.73
2023-04-30T08:38:24.383Z,31.02
2023-04-30T08:39:24.058Z,33.55
2023-04-30T08:40:43.571Z,32.36
2023-04-30T08:41:24.978Z,32.48
2023-04-30T08:42:24.015Z,32.71
2023-04-30T08:43:24.018Z,33.15
2023-04-30T08:44:24.130Z,31.56
2023-04-30T08:45:23.964Z,32.29
2023-04-30T08:46:24.006Z,31.00
2023-04-30T08:47:24.019Z,30.09
2023-04-30T08:48:23.934Z,28.95
2023-04-30T08:49:24.908Z,31.16
2023-04-30T08:50:23.941Z,32.56
2023-04-30T08:51:23.921Z,37.06
2023-04-30T08:52:23.952Z,37.67
2023-04-30T08:53:23.917Z,39.00
2023-04-30T08:54:23.891Z,41.20
2023-04-30T08:55:23.895Z,41.87
2023-04-30T08:56:25.372Z,44.26
2023-04-30T08:57:23.877Z,40.03
2023-04-30T08:58:23.889Z,39.34
2023-04-30T08:59:23.895Z,37.01
2023-04-30T09:00:23.868Z,37.44
2023-04-30T09:01:23.921Z,38.30
2023-04-30T09:02:23.920Z,35.12
2023-04-30T09:03:24.056Z,36.06
2023-04-30T09:04:23.859Z,35.41
2023-04-30T09:05:23.843Z,34.45
2023-04-30T09:06:23.847Z,34.71
2023-04-30T09:07:23.832Z,37.40
2023-04-30T09:08:23.822Z,35.83
2023-04-30T09:09:23.806Z,35.92
2023-04-30T09:10:23.786Z,32.32
2023-04-30T09:11:23.797Z,33.04
2023-04-30T09:12:23.788Z,37.97
2023-04-30T09:13:23.765Z,34.88
2023-04-30T09:14:23.777Z,34.39
2023-04-30T09:15:23.761Z,31.99
2023-04-30T09:16:23.821Z,31.41
2023-04-30T09:17:23.820Z,36.00
2023-04-30T09:18:23.783Z,37.57
2023-04-30T09:19:23.828Z,33.61
2023-04-30T09:20:23.792Z,35.50
2023-04-30T09:21:23.809Z,34.03
2023-04-30T09:22:23.801Z,35.12
2023-04-30T09:23:23.797Z,35.88
2023-04-30T09:24:23.835Z,31.01
2023-04-30T09:25:23.824Z,34.24
2023-04-30T09:26:23.857Z,33.44
2023-04-30T09:27:23.824Z,35.36
2023-04-30T09:28:23.980Z,34.34
2023-04-30T09:29:24.009Z,32.48
2023-04-30T09:30:23.881Z,31.34
2023-04-30T09:31:23.917Z,33.58
2023-04-30T09:32:23.929Z,33.90
2023-04-30T09:33:23.882Z,35.97
2023-04-30T09:34:23.894Z,32.98
2023-04-30T09:35:23.878Z,38.13
2023-04-30T09:36:23.893Z,40.63
2023-04-30T09:37:23.915Z,45.45
2023-04-30T09:38:23.921Z,46.43
2023-04-30T09:39:23.916Z,46.18
2023-04-30T09:40:23.890Z,43.17
2023-04-30T09:41:23.897Z,42.73
2023-04-30T09:42:23.940Z,43.35
2023-04-30T09:43:23.920Z,39.79
2023-04-30T09:44:23.919Z,39.96
2023-04-30T09:45:23.915Z,38.54
2023-04-30T09:46:23.959Z,40.10
2023-04-30T09:47:23.959Z,37.99
2023-04-30T09:48:24.041Z,35.94
2023-04-30T09:49:23.922Z,35.97
2023-04-30T09:50:23.916Z,38.12
2023-04-30T09:51:23.948Z,40.39
2023-04-30T09:52:23.954Z,38.55
2023-04-30T09:53:23.952Z,38.68
2023-04-30T09:54:23.944Z,41.27
2023-04-30T09:55:23.962Z,40.04
2023-04-30T09:56:23.971Z,41.64
2023-04-30T09:57:23.971Z,39.83
2023-04-30T09:58:23.983Z,38.32
2023-04-30T09:59:23.955Z,37.11
2023-04-30T10:00:23.949Z,37.68
2023-04-30T10:01:23.994Z,37.99
2023-04-30T10:02:24.231Z,38.38
2023-04-30T10:03:23.990Z,36.99
2023-04-30T10:04:23.993Z,36.76
2023-04-30T10:05:23.936Z,35.66
2023-04-30T10:06:23.988Z,40.25
2023-04-30T10:07:23.902Z,39.16
2023-04-30T10:08:23.948Z,36.12
2023-04-30T10:09:23.918Z,35.86
2023-04-30T10:10:23.936Z,38.85
2023-04-30T10:11:23.945Z,34.61
2023-04-30T10:12:23.954Z,36.28
2023-04-30T10:13:23.958Z,39.69
2023-04-30T10:14:24.009Z,36.27
2023-04-30T10:15:23.929Z,34.16
2023-04-30T10:16:24.035Z,35.19
2023-04-30T10:17:23.933Z,35.15
2023-04-30T10:18:23.907Z,36.93
2023-04-30T10:19:23.922Z,32.57
2023-04-30T10:20:23.928Z,36.03
2023-04-30T10:21:23.945Z,36.25
2023-04-30T10:22:23.946Z,34.73
2023-04-30T10:23:23.914Z,41.52
2023-04-30T10:24:23.891Z,41.74
2023-04-30T10:25:23.921Z,49.83
2023-04-30T10:26:23.872Z,48.68
2023-04-30T10:27:23.929Z,47.22
2023-04-30T10:28:23.874Z,48.18
2023-04-30T10:29:23.884Z,46.99
2023-04-30T10:30:23.894Z,45.95
2023-04-30T10:31:23.921Z,44.55
2023-04-30T10:32:23.996Z,42.52
2023-04-30T10:33:23.916Z,45.45
2023-04-30T10:34:23.876Z,42.51
2023-04-30T10:35:23.853Z,44.44
2023-04-30T10:36:23.898Z,41.08
2023-04-30T10:37:23.873Z,41.50
2023-04-30T10:38:23.850Z,41.17
2023-04-30T10:39:23.850Z,42.42
2023-04-30T10:40:23.866Z,41.31
2023-04-30T10:41:23.862Z,38.48
2023-04-30T10:42:23.879Z,41.56
2023-04-30T10:43:23.836Z,39.72
2023-04-30T10:44:23.846Z,40.33
2023-04-30T10:45:23.852Z,42.75
2023-04-30T10:46:23.919Z,40.40
2023-04-30T10:47:23.871Z,41.43
2023-04-30T10:48:23.816Z,41.06
2023-04-30T10:49:23.821Z,39.73
2023-04-30T10:50:23.832Z,40.05
2023-04-30T10:51:23.796Z,41.64
2023-04-30T10:52:23.817Z,38.39
2023-04-30T10:53:23.812Z,38.99
2023-04-30T10:54:23.811Z,39.07
2023-04-30T10:55:24.006Z,36.91
2023-04-30T10:56:23.785Z,41.30
2023-04-30T10:57:23.775Z,40.12
2023-04-30T10:58:23.782Z,40.44
2023-04-30T10:59:23.792Z,40.62
2023-04-30T11:00:23.798Z,43.98
2023-04-30T11:01:23.829Z,43.14
2023-04-30T11:02:23.885Z,40.95
2023-04-30T11:03:23.823Z,39.69
2023-04-30T11:04:23.871Z,41.73
2023-04-30T11:05:23.833Z,40.27
2023-04-30T11:06:23.858Z,42.46
2023-04-30T11:07:23.859Z,40.78
2023-04-30T11:08:23.846Z,39.70
2023-04-30T11:09:23.927Z,41.34
2023-04-30T11:10:23.935Z,38.99
2023-04-30T11:11:24.051Z,41.73
2023-04-30T11:12:23.995Z,40.57
2023-04-30T11:13:23.989Z,42.21
2023-04-30T11:14:24.001Z,43.08
2023-04-30T11:15:24.011Z,43.78
2023-04-30T11:16:24.046Z,44.21
2023-04-30T11:17:24.119Z,43.06
2023-04-30T11:18:24.150Z,41.51
2023-04-30T11:19:24.126Z,44.89
2023-04-30T11:20:24.163Z,42.14
2023-04-30T11:21:24.205Z,43.12
2023-04-30T11:22:24.265Z,44.71
2023-04-30T11:23:37.935Z,40.22
2023-04-30T11:25:24.308Z,41.24
2023-04-30T11:26:24.290Z,42.16
2023-04-30T11:27:24.297Z,43.94
2023-04-30T11:28:24.290Z,43.51
2023-04-30T11:29:24.338Z,44.00
2023-04-30T11:30:24.271Z,46.58
2023-04-30T11:31:24.303Z,44.91
2023-04-30T11:32:24.316Z,40.54
2023-04-30T11:33:24.315Z,39.48
2023-04-30T11:34:24.392Z,44.68
2023-04-30T11:35:24.412Z,41.71
2023-04-30T11:36:24.486Z,42.20
2023-04-30T11:37:24.551Z,41.73
2023-04-30T11:38:24.640Z,38.09
2023-04-30T11:39:24.720Z,41.91
2023-04-30T11:40:24.767Z,41.65
2023-04-30T11:41:24.819Z,42.45
2023-04-30T11:42:24.870Z,40.93
2023-04-30T11:43:24.916Z,41.78
2023-04-30T11:44:24.991Z,40.46
2023-04-30T11:45:25.050Z,43.39
2023-04-30T11:46:25.120Z,42.47
2023-04-30T11:47:25.238Z,40.07
2023-04-30T11:48:25.260Z,43.84
2023-04-30T11:49:25.322Z,40.18
2023-04-30T11:50:25.387Z,40.49
2023-04-30T11:51:25.432Z,39.45
2023-04-30T11:52:25.528Z,40.68
2023-04-30T11:53:25.560Z,38.40
2023-04-30T11:54:25.636Z,40.88
2023-04-30T11:55:25.703Z,40.61
2023-04-30T11:56:26.039Z,44.30
2023-04-30T11:57:25.815Z,37.12
2023-04-30T11:58:25.905Z,35.66
2023-04-30T11:59:25.956Z,39.44
2023-04-30T12:00:26.018Z,37.20
2023-04-30T12:01:26.071Z,38.62
2023-04-30T12:02:26.223Z,39.39
2023-04-30T12:03:26.321Z,39.41
2023-04-30T12:04:26.330Z,37.87
2023-04-30T12:05:26.252Z,38.92
2023-04-30T12:06:26.536Z,39.52
2023-04-30T12:07:26.401Z,36.31
2023-04-30T12:08:26.456Z,29.40
2023-04-30T12:09:26.494Z,31.10
2023-04-30T12:10:26.545Z,30.51
2023-04-30T12:11:26.635Z,28.84
2023-04-30T12:12:26.638Z,30.63
2023-04-30T12:13:26.666Z,30.58
2023-04-30T12:14:26.781Z,30.49
2023-04-30T12:15:27.253Z,30.25
2023-04-30T12:16:26.931Z,32.52
2023-04-30T12:17:26.989Z,31.03
2023-04-30T12:18:26.986Z,25.12
2023-04-30T12:19:27.071Z,24.80
2023-04-30T12:20:27.105Z,30.41
2023-04-30T12:21:27.153Z,29.48
2023-04-30T12:22:27.290Z,28.40
2023-04-30T12:23:27.309Z,26.86
2023-04-30T12:24:27.378Z,25.00
2023-04-30T12:25:27.417Z,27.74
2023-04-30T12:26:27.455Z,35.43
2023-04-30T12:27:27.475Z,28.05
2023-04-30T12:28:27.576Z,25.00
2023-04-30T12:29:27.614Z,40.51
2023-04-30T12:30:27.710Z,43.21
2023-04-30T12:31:27.748Z,41.30
2023-04-30T12:32:27.889Z,39.85
2023-04-30T12:33:27.880Z,31.53
2023-04-30T12:34:27.897Z,26.83
2023-04-30T12:35:27.968Z,27.77
2023-04-30T12:36:27.990Z,28.62
2023-04-30T12:37:28.070Z,27.44
2023-04-30T12:38:28.182Z,28.01
2023-04-30T12:39:28.228Z,26.47
2023-04-30T12:40:28.269Z,25.51
2023-04-30T12:41:28.305Z,32.98
2023-04-30T12:42:28.371Z,29.40
2023-04-30T12:43:28.420Z,25.59
2023-04-30T12:44:28.482Z,25.00
2023-04-30T12:45:28.519Z,26.43
2023-04-30T12:46:28.668Z,27.03
2023-04-30T12:47:28.669Z,25.71
2023-04-30T12:48:28.790Z,26.99
2023-04-30T12:49:28.742Z,25.00
2023-04-30T12:50:28.776Z,25.00
2023-04-30T12:51:28.844Z,24.90
2023-04-30T12:52:28.896Z,27.42
2023-04-30T12:53:28.992Z,26.95